createdAt,value
2023-04-30T00:00:03.432Z,3.99
2023-04-30T00:02:30.094Z,4.34
2023-04-30T00:04:57.292Z,4.05
2023-04-30T00:07:24.456Z,4.25
2023-04-30T00:09:56.188Z,4.06
2023-04-30T00:12:23.182Z,4.53
2023-04-30T00:14:49.741Z,3.98
2023-04-30T00:17:23.883Z,5.24
2023-04-30T00:19:50.451Z,5.15
2023-04-30T00:22:17.318Z,5.44
2023-04-30T00:24:51.302Z,4.99
2023-04-30T00:27:19.738Z,4.91
2023-04-30T00:29:47.131Z,5.17
2023-04-30T00:32:14.434Z,5.14
2023-04-30T00:34:48.284Z,5.03
2023-04-30T00:37:16.543Z,5.55
2023-04-30T00:39:43.106Z,5.26
2023-04-30T00:42:10.929Z,5.15
2023-04-30T00:44:38.504Z,5.37
2023-04-30T00:47:07.546Z,5.38
2023-04-30T00:49:34.677Z,5.21
2023-04-30T00:52:03.666Z,5.41
2023-04-30T00:54:30.971Z,5.22
2023-04-30T00:56:59.878Z,5.51
2023-04-30T00:59:26.504Z,5.54
2023-04-30T01:01:54.523Z,5.54
2023-04-30T01:04:25.274Z,5.47
2023-04-30T01:06:52.683Z,5.19
2023-04-30T01:09:19.292Z,5.26
2023-04-30T01:11:52.549Z,5.26
2023-04-30T01:14:19.379Z,4.99
2023-04-30T01:16:46.507Z,4.89
2023-04-30T01:19:13.089Z,5.00
2023-04-30T01:21:40.252Z,5.07
2023-04-30T01:24:06.831Z,5.29
2023-04-30T01:26:33.866Z,5.16
2023-04-30T01:29:02.872Z,5.38
2023-04-30T01:31:29.450Z,5.15
2023-04-30T01:33:56.293Z,5.30
2023-04-30T01:36:22.812Z,5.39
2023-04-30T01:38:49.348Z,5.29
2023-04-30T01:41:18.832Z,5.57
2023-04-30T01:43:45.552Z,5.30
2023-04-30T01:46:12.640Z,5.85
2023-04-30T01:48:39.788Z,5.67
2023-04-30T01:51:08.026Z,5.80
2023-04-30T01:53:35.535Z,6.37
2023-04-30T01:56:02.119Z,6.21
2023-04-30T02:00:57.693Z,6.41
2023-04-30T02:03:25.333Z,6.24
2023-04-30T02:05:52.205Z,6.40
2023-04-30T02:08:24.336Z,6.41
2023-04-30T02:10:53.842Z,6.65
2023-04-30T02:13:20.520Z,6.54
2023-04-30T02:15:47.445Z,6.42
2023-04-30T02:18:14.359Z,6.30
2023-04-30T02:20:44.548Z,6.57
2023-04-30T02:23:11.121Z,6.74
2023-04-30T02:25:38.554Z,6.59
2023-04-30T02:28:05.889Z,5.99
2023-04-30T02:30:33.267Z,6.36
2023-04-30T02:32:59.840Z,5.93
2023-04-30T02:35:26.379Z,6.11
2023-04-30T02:37:57.336Z,5.71
2023-04-30T02:40:23.887Z,5.25
2023-04-30T02:42:51.289Z,5.07
2023-04-30T02:45:18.181Z,4.95
2023-04-30T02:47:44.813Z,5.10
2023-04-30T02:50:11.432Z,4.98
2023-04-30T02:52:38.738Z,4.84
2023-04-30T02:55:07.422Z,5.01
2023-04-30T02:57:34.737Z,4.87
2023-04-30T03:00:02.611Z,4.67
2023-04-30T03:02:30.087Z,4.54
2023-04-30T03:04:56.685Z,4.75
2023-04-30T03:07:23.393Z,4.37
2023-04-30T03:09:51.738Z,4.68
2023-04-30T03:12:18.286Z,4.47
2023-04-30T03:14:44.944Z,4.32
2023-04-30T03:17:13.696Z,4.58
2023-04-30T03:19:40.687Z,4.66
2023-04-30T03:22:07.620Z,4.51
2023-04-30T03:24:35.924Z,4.93
2023-04-30T03:27:02.735Z,5.21
2023-04-30T03:29:29.307Z,5.15
2023-04-30T03:32:00.114Z,5.27
2023-04-30T03:34:27.237Z,4.71
2023-04-30T03:36:54.841Z,4.45
2023-04-30T03:39:23.711Z,4.77
2023-04-30T03:41:50.657Z,4.70
2023-04-30T03:44:17.252Z,4.73
2023-04-30T03:46:43.845Z,4.49
2023-04-30T03:49:10.770Z,4.96
2023-04-30T03:51:38.043Z,4.96
2023-04-30T03:54:04.648Z,4.81
2023-04-30T03:56:31.180Z,4.60
2023-04-30T03:59:00.398Z,4.35
2023-04-30T04:01:27.962Z,4.41
2023-04-30T04:03:57.527Z,4.46
2023-04-30T04:06:24.126Z,4.62
2023-04-30T04:08:50.990Z,4.63
2023-04-30T04:11:17.567Z,5.01
2023-04-30T04:13:44.372Z,5.02
2023-04-30T04:16:13.346Z,4.85
2023-04-30T04:18:44.519Z,4.89
2023-04-30T04:21:12.258Z,5.10
2023-04-30T04:23:38.822Z,5.31
2023-04-30T04:26:06.090Z,5.43
2023-04-30T04:28:33.175Z,5.13
2023-04-30T04:31:00.761Z,5.17
2023-04-30T04:33:27.286Z,5.70
2023-04-30T04:35:54.109Z,5.26
2023-04-30T04:38:20.745Z,5.41
2023-04-30T04:40:47.249Z,5.34
2023-04-30T04:43:14.942Z,5.34
2023-04-30T04:45:42.338Z,5.42
2023-04-30T04:48:11.669Z,5.35
2023-04-30T04:50:41.114Z,5.29
2023-04-30T04:53:07.963Z,5.02
2023-04-30T04:55:34.804Z,5.17
2023-04-30T04:58:03.764Z,5.17
2023-04-30T05:00:30.246Z,5.11
2023-04-30T05:02:57.901Z,5.26
2023-04-30T05:05:24.455Z,5.28
2023-04-30T05:07:52.880Z,5.33
2023-04-30T05:10:20.447Z,5.56
2023-04-30T05:12:47.760Z,5.40
2023-04-30T05:15:16.807Z,5.34
2023-04-30T05:17:44.678Z,5.54
2023-04-30T05:20:11.608Z,5.63
2023-04-30T05:22:45.564Z,5.41
2023-04-30T05:25:14.503Z,5.50
2023-04-30T05:27:41.959Z,5.39
2023-04-30T05:30:09.447Z,5.44
2023-04-30T05:32:38.311Z,5.83
2023-04-30T05:35:05.830Z,5.54
2023-04-30T05:37:32.656Z,5.75
2023-04-30T05:40:02.232Z,5.99
2023-04-30T05:42:29.209Z,6.39
2023-04-30T05:44:57.745Z,6.45
2023-04-30T05:47:24.408Z,6.03
2023-04-30T05:49:51.702Z,5.88
2023-04-30T05:52:18.541Z,6.06
2023-04-30T05:54:46.377Z,6.04
2023-04-30T05:57:14.585Z,5.42
2023-04-30T05:59:41.960Z,5.44
2023-04-30T06:02:08.743Z,5.47
2023-04-30T06:04:36.286Z,5.36
2023-04-30T06:07:02.855Z,5.02
2023-04-30T06:09:29.444Z,4.70
2023-04-30T06:11:56.342Z,4.96
2023-04-30T06:14:23.077Z,5.42
2023-04-30T06:16:49.803Z,5.00
2023-04-30T06:19:16.698Z,5.07
2023-04-30T06:21:43.254Z,4.93
2023-04-30T06:24:10.348Z,5.34
2023-04-30T06:26:43.717Z,4.97
2023-04-30T06:29:11.058Z,4.70
2023-04-30T06:31:38.536Z,4.66
2023-04-30T06:34:12.794Z,4.83
2023-04-30T06:36:39.624Z,5.29
2023-04-30T06:39:06.520Z,5.43
2023-04-30T06:41:33.362Z,5.30
2023-04-30T06:44:00.227Z,5.19
2023-04-30T06:46:29.119Z,5.20
2023-04-30T06:48:55.970Z,5.16
2023-04-30T06:51:23.398Z,5.44
2023-04-30T06:53:50.239Z,5.59
2023-04-30T06:56:18.672Z,5.25
2023-04-30T06:58:45.589Z,5.90
2023-04-30T07:01:12.589Z,5.70
2023-04-30T07:03:42.435Z,5.33
2023-04-30T07:06:10.109Z,5.25
2023-04-30T07:08:37.667Z,5.56
2023-04-30T07:11:05.972Z,5.17
2023-04-30T07:13:32.907Z,5.30
2023-04-30T07:16:01.833Z,5.58
2023-04-30T07:18:29.181Z,5.33
2023-04-30T07:20:57.427Z,5.24
2023-04-30T07:23:28.365Z,5.32
2023-04-30T07:26:03.358Z,5.45
2023-04-30T07:28:33.385Z,5.46
2023-04-30T07:31:00.254Z,5.36
2023-04-30T07:33:27.186Z,5.48
2023-04-30T07:35:53.733Z,5.05
2023-04-30T07:38:20.692Z,5.27
2023-04-30T07:40:47.598Z,5.61
2023-04-30T07:43:14.906Z,5.39
2023-04-30T07:45:42.330Z,6.01
2023-04-30T07:48:08.934Z,5.83
2023-04-30T07:50:36.537Z,5.55
2023-04-30T07:53:06.433Z,5.54
2023-04-30T07:55:33.320Z,5.80
2023-04-30T07:58:02.820Z,5.58
2023-04-30T08:00:36.783Z,5.71
2023-04-30T08:03:03.412Z,5.61
2023-04-30T08:05:30.875Z,5.52
2023-04-30T08:07:57.470Z,5.53
2023-04-30T08:10:27.159Z,5.57
2023-04-30T08:12:53.755Z,5.57
2023-04-30T08:15:23.027Z,5.88
2023-04-30T08:17:50.722Z,5.40
2023-04-30T08:20:17.676Z,5.47
2023-04-30T08:22:45.333Z,5.64
2023-04-30T08:25:13.992Z,6.25
2023-04-30T08:27:41.477Z,6.20
2023-04-30T08:30:08.637Z,5.82
2023-04-30T08:32:36.533Z,5.55
2023-04-30T08:35:04.212Z,6.27
2023-04-30T08:37:32.158Z,6.37
2023-04-30T08:39:59.690Z,6.17
2023-04-30T08:42:26.972Z,9.26
2023-04-30T08:44:57.599Z,37.52
2023-04-30T08:47:26.875Z,25.33
2023-04-30T08:49:59.098Z,52.71
2023-04-30T08:52:27.098Z,8.75
2023-04-30T08:54:54.367Z,8.34
2023-04-30T09:00:09.190Z,13.93
2023-04-30T09:02:35.796Z,11.13
2023-04-30T09:05:03.751Z,10.21
2023-04-30T09:07:30.274Z,6.66
2023-04-30T09:10:04.368Z,8.05
2023-04-30T09:12:31.774Z,11.10
2023-04-30T09:14:59.735Z,14.56
2023-04-30T09:17:27.366Z,20.81
2023-04-30T09:19:54.545Z,9.78
2023-04-30T09:22:22.906Z,6.98
2023-04-30T09:24:50.516Z,6.62
2023-04-30T09:27:17.438Z,6.52
2023-04-30T09:29:45.004Z,6.63
2023-04-30T09:32:11.830Z,6.11
2023-04-30T09:37:50.064Z,6.55
2023-04-30T09:40:17.623Z,6.33
2023-04-30T09:42:46.443Z,6.49
2023-04-30T09:45:15.458Z,6.39
2023-04-30T09:47:42.326Z,6.21
2023-04-30T09:50:10.973Z,6.37
2023-04-30T09:52:40.448Z,6.17
2023-04-30T09:55:07.315Z,6.28
2023-04-30T09:57:34.234Z,6.62
2023-04-30T10:00:03.010Z,6.58
2023-04-30T10:02:32.957Z,6.92
2023-04-30T10:05:02.822Z,6.99
2023-04-30T10:07:30.414Z,6.09
2023-04-30T10:09:59.507Z,6.92
2023-04-30T10:12:26.470Z,6.50
2023-04-30T10:14:55.668Z,6.20
2023-04-30T10:17:22.303Z,6.80
2023-04-30T10:23:06.177Z,6.57
2023-04-30T10:25:32.747Z,6.86
2023-04-30T10:27:59.510Z,6.55
2023-04-30T10:30:26.137Z,6.41
2023-04-30T10:33:00.020Z,6.18
2023-04-30T10:35:29.092Z,6.77
2023-04-30T10:37:56.461Z,7.60
2023-04-30T10:40:31.256Z,7.12
2023-04-30T10:43:02.018Z,6.66
2023-04-30T10:48:19.123Z,7.18
2023-04-30T10:50:53.124Z,7.06
2023-04-30T10:53:20.741Z,6.86
2023-04-30T10:55:48.128Z,6.64
2023-04-30T10:58:14.673Z,6.83
2023-04-30T11:00:43.138Z,7.16
2023-04-30T11:03:10.338Z,6.72
2023-04-30T11:05:37.345Z,6.94
2023-04-30T11:08:15.992Z,6.57
2023-04-30T11:10:44.408Z,6.68
2023-04-30T11:13:10.950Z,6.88
2023-04-30T11:15:38.793Z,6.97
2023-04-30T11:18:06.542Z,6.87
2023-04-30T11:20:33.081Z,7.49
2023-04-30T11:23:00.263Z,7.26
2023-04-30T11:25:29.244Z,7.28
2023-04-30T11:27:56.860Z,6.67
2023-04-30T11:30:23.424Z,7.01
2023-04-30T11:32:52.462Z,7.13
2023-04-30T11:35:19.937Z,6.63
2023-04-30T11:37:46.834Z,7.04
2023-04-30T11:40:13.732Z,7.50
2023-04-30T11:42:41.201Z,7.35
2023-04-30T11:45:12.635Z,7.05
2023-04-30T11:47:39.924Z,6.86
2023-04-30T11:50:06.790Z,7.30
2023-04-30T11:52:34.110Z,6.57
2023-04-30T11:55:01.799Z,6.87
2023-04-30T11:57:28.580Z,6.69
2023-04-30T11:59:55.833Z,7.01
2023-04-30T12:02:30.022Z,9.81
2023-04-30T12:04:58.141Z,14.19
2023-04-30T12:25:41.573Z,6.80
2023-04-30T12:28:15.632Z,6.98
2023-04-30T12:30:42.469Z,7.59
2023-04-30T12:33:09.126Z,7.58
2023-04-30T12:35:36.632Z,7.57
2023-04-30T12:38:07.661Z,7.07
2023-04-30T12:41:03.128Z,7.91
2023-04-30T12:46:22.247Z,6.89
2023-04-30T12:48:49.588Z,7.17
2023-04-30T12:51:23.630Z,7.34
2023-04-30T12:53:50.226Z,7.82
2023-04-30T12:56:28.216Z,7.51
2023-04-30T12:58:55.637Z,7.20
2023-04-30T13:01:25.117Z,7.23
2023-04-30T13:03:51.808Z,6.99
2023-04-30T13:06:19.221Z,7.14
2023-04-30T13:08:57.903Z,7.42
2023-04-30T13:11:55.585Z,7.29
2023-04-30T13:14:26.267Z,6.58
2023-04-30T13:16:53.078Z,6.95
2023-04-30T13:19:20.037Z,6.74
2023-04-30T13:21:46.895Z,7.26
2023-04-30T13:24:13.649Z,6.77
2023-04-30T13:26:40.445Z,6.87
2023-04-30T13:29:07.319Z,6.97
2023-04-30T13:31:40.058Z,7.11
2023-04-30T13:34:09.893Z,6.59
2023-04-30T13:36:36.812Z,6.84
2023-04-30T13:39:03.600Z,6.65
2023-04-30T13:41:30.175Z,7.27
2023-04-30T13:43:57.157Z,6.81
2023-04-30T13:46:23.971Z,7.05
2023-04-30T13:48:58.016Z,7.04
2023-04-30T13:51:24.606Z,6.95
2023-04-30T13:53:51.992Z,7.28
2023-04-30T13:56:18.882Z,6.44
2023-04-30T13:58:47.858Z,6.83
2023-04-30T14:01:15.843Z,6.33
2023-04-30T14:03:42.587Z,6.86
2023-04-30T14:06:10.509Z,6.76
2023-04-30T14:08:42.257Z,6.98
2023-04-30T14:11:09.193Z,7.02
2023-04-30T14:13:36.068Z,6.73
2023-04-30T14:16:02.939Z,6.89
2023-04-30T14:21:01.487Z,7.27
2023-04-30T14:23:28.036Z,7.26
2023-04-30T14:25:55.592Z,6.96
2023-04-30T14:28:24.900Z,7.27
2023-04-30T14:30:51.803Z,7.11
2023-04-30T14:33:18.994Z,6.87
2023-04-30T14:35:52.938Z,6.75
2023-04-30T14:38:19.551Z,6.69
2023-04-30T14:40:46.480Z,6.73
2023-04-30T14:43:13.752Z,6.83
2023-04-30T14:45:43.483Z,6.64
2023-04-30T14:48:13.413Z,6.39
2023-04-30T14:50:40.111Z,8.21
2023-04-30T14:53:07.461Z,7.62
2023-04-30T14:55:37.053Z,7.00
2023-04-30T14:58:08.155Z,10.46
2023-04-30T15:00:35.537Z,6.66
2023-04-30T15:03:04.438Z,6.32
2023-04-30T15:05:31.090Z,6.04
2023-04-30T15:07:59.069Z,5.87
2023-04-30T15:10:25.852Z,6.19
2023-04-30T15:12:54.565Z,5.89
2023-04-30T15:15:21.356Z,6.00
2023-04-30T15:17:48.067Z,5.85
2023-04-30T15:20:14.695Z,5.90
2023-04-30T15:22:43.223Z,5.71
2023-04-30T15:25:10.231Z,6.10
2023-04-30T15:30:26.678Z,5.57
2023-04-30T15:32:53.987Z,5.62
2023-04-30T15:35:23.860Z,5.69
2023-04-30T15:37:50.770Z,5.91
2023-04-30T15:40:17.229Z,6.24
2023-04-30T15:42:46.600Z,5.94
2023-04-30T15:45:13.250Z,6.15
2023-04-30T15:47:39.908Z,5.99
2023-04-30T15:50:06.422Z,5.75
2023-04-30T15:52:36.500Z,5.78
2023-04-30T16:10:24.334Z,8.33
2023-04-30T16:12:55.130Z,7.54
2023-04-30T16:15:21.920Z,7.81
2023-04-30T16:17:48.898Z,7.29
2023-04-30T16:20:18.006Z,7.38
2023-04-30T16:22:48.567Z,7.19
2023-04-30T16:25:15.915Z,15.59
2023-04-30T16:27:42.634Z,6.82
2023-04-30T16:30:09.224Z,7.05
2023-04-30T16:32:38.143Z,7.45
2023-04-30T16:35:05.755Z,7.58
2023-04-30T16:37:32.660Z,8.29
2023-04-30T16:39:59.620Z,7.82
2023-04-30T16:42:26.625Z,8.03
2023-04-30T16:44:56.657Z,8.34
2023-04-30T16:47:23.609Z,8.62
2023-04-30T16:50:05.244Z,9.64
2023-04-30T16:53:04.082Z,9.04
2023-04-30T16:55:32.187Z,9.21
2023-04-30T17:01:12.697Z,9.29
2023-04-30T17:03:44.145Z,9.45
2023-04-30T17:06:12.088Z,9.19
2023-04-30T17:08:40.288Z,24.61
2023-04-30T17:11:09.937Z,10.74
2023-04-30T17:13:36.832Z,11.55
2023-04-30T17:16:03.430Z,9.88
2023-04-30T17:18:30.012Z,12.07
2023-04-30T17:20:56.946Z,11.18
2023-04-30T17:23:23.880Z,10.93
2023-04-30T17:25:50.846Z,9.34
2023-04-30T17:28:17.789Z,9.50
2023-04-30T17:30:44.655Z,8.67
2023-04-30T17:33:11.350Z,8.70
2023-04-30T17:35:39.282Z,9.23
2023-04-30T17:38:06.552Z,8.96
2023-04-30T17:40:33.474Z,8.85
2023-04-30T17:43:03.198Z,9.20
2023-04-30T17:45:29.809Z,8.74
2023-04-30T17:48:00.990Z,9.18
2023-04-30T17:50:27.823Z,9.27
2023-04-30T17:52:57.317Z,9.54
2023-04-30T17:55:26.543Z,9.45
2023-04-30T17:57:53.418Z,9.60
2023-04-30T18:00:20.816Z,10.39
2023-04-30T18:02:54.927Z,9.94
2023-04-30T18:05:22.687Z,9.23
2023-04-30T18:07:49.256Z,10.41
2023-04-30T18:10:15.909Z,9.28
2023-04-30T18:12:42.802Z,8.95
2023-04-30T18:15:09.770Z,8.62
2023-04-30T18:17:38.768Z,9.13
2023-04-30T18:20:07.936Z,8.11
2023-04-30T18:22:37.627Z,8.94
2023-04-30T18:25:04.764Z,8.71
2023-04-30T18:27:33.751Z,26.63
2023-04-30T18:30:00.541Z,16.93
2023-04-30T18:32:29.191Z,9.13
2023-04-30T18:34:55.680Z,10.03
2023-04-30T18:37:22.349Z,10.02
2023-04-30T18:39:49.098Z,10.27
2023-04-30T18:42:15.617Z,9.45
2023-04-30T18:44:43.190Z,9.44
2023-04-30T18:47:10.364Z,9.30
2023-04-30T18:49:37.198Z,9.00
2023-04-30T18:52:04.961Z,9.02
2023-04-30T18:54:32.485Z,9.50
2023-04-30T18:57:01.651Z,10.19
2023-04-30T18:59:29.838Z,10.55
2023-04-30T19:01:56.731Z,11.21
2023-04-30T19:04:23.869Z,10.98
2023-04-30T19:06:52.517Z,11.38
2023-04-30T19:09:19.524Z,11.58
2023-04-30T19:11:48.642Z,10.76
2023-04-30T19:14:15.346Z,10.96
2023-04-30T19:16:42.351Z,10.18
2023-04-30T19:19:09.330Z,9.94
2023-04-30T19:21:38.951Z,10.51
2023-04-30T19:24:06.413Z,10.26
2023-04-30T19:26:36.814Z,8.91
2023-04-30T19:29:08.088Z,9.15
2023-04-30T19:31:35.232Z,8.54
2023-04-30T19:34:05.718Z,8.20
2023-04-30T19:36:39.758Z,8.79
2023-04-30T19:39:06.649Z,8.69
2023-04-30T19:41:33.601Z,8.38
2023-04-30T19:44:00.635Z,8.00
2023-04-30T19:46:28.822Z,7.56
2023-04-30T19:48:58.791Z,8.28
2023-04-30T19:51:25.646Z,8.35
2023-04-30T19:53:52.555Z,8.85
2023-04-30T19:56:19.972Z,8.93
2023-04-30T19:58:47.582Z,9.14
2023-04-30T20:01:22.150Z,9.94
2023-04-30T20:03:48.869Z,10.99
2023-04-30T20:06:17.265Z,16.77
2023-04-30T20:08:44.250Z,9.65
2023-04-30T20:11:10.805Z,9.48
2023-04-30T20:13:37.468Z,9.66
2023-04-30T20:16:05.834Z,13.12
2023-04-30T20:18:32.421Z,11.69
2023-04-30T20:20:59.033Z,14.03
2023-04-30T20:23:28.860Z,12.99
2023-04-30T20:25:57.503Z,9.47
2023-04-30T20:28:27.221Z,9.66
2023-04-30T20:30:54.001Z,9.33
2023-04-30T20:33:20.787Z,9.61
2023-04-30T20:35:47.977Z,10.10
2023-04-30T20:38:21.674Z,10.55
2023-04-30T20:40:48.727Z,9.78
2023-04-30T20:43:17.000Z,9.90
2023-04-30T20:45:43.866Z,9.39
2023-04-30T20:48:11.208Z,9.81
2023-04-30T20:50:38.163Z,10.23
2023-04-30T20:53:07.073Z,10.47
2023-04-30T20:55:37.477Z,9.69
2023-04-30T20:58:07.301Z,9.85
2023-04-30T21:00:34.774Z,10.02
2023-04-30T21:03:01.871Z,10.20
2023-04-30T21:05:38.762Z,9.93
2023-04-30T21:08:10.404Z,9.90
2023-04-30T21:10:37.248Z,9.83
2023-04-30T21:13:11.321Z,10.05
2023-04-30T21:15:41.048Z,9.79
2023-04-30T21:20:58.759Z,9.14
2023-04-30T21:23:26.190Z,9.22
2023-04-30T21:25:55.267Z,9.19
2023-04-30T21:28:21.759Z,9.60
2023-04-30T21:30:49.646Z,9.72
2023-04-30T21:33:16.836Z,9.67
2023-04-30T21:38:24.674Z,9.73
2023-04-30T21:40:51.530Z,9.33
2023-04-30T21:43:21.232Z,8.87
2023-04-30T21:45:50.064Z,8.64
2023-04-30T21:48:18.126Z,8.97
2023-04-30T21:50:49.559Z,8.82
2023-04-30T21:53:16.338Z,9.16
2023-04-30T21:55:43.194Z,9.56
2023-04-30T21:58:13.080Z,9.41
2023-04-30T22:00:39.684Z,9.49
2023-04-30T22:03:06.529Z,9.46
2023-04-30T22:05:34.110Z,9.50
2023-04-30T22:08:01.368Z,10.07
2023-04-30T22:10:28.772Z,10.44
2023-04-30T22:12:55.662Z,10.34
2023-04-30T22:15:27.439Z,10.40
2023-04-30T22:17:59.234Z,10.59
2023-04-30T22:20:26.093Z,10.41
2023-04-30T22:22:56.733Z,10.88
2023-04-30T22:25:28.258Z,10.02
2023-04-30T22:27:55.638Z,9.94
2023-04-30T22:30:22.490Z,9.87
2023-04-30T22:33:13.022Z,9.72
2023-04-30T22:35:47.362Z,9.51
2023-04-30T22:38:15.221Z,9.67
2023-04-30T22:40:41.804Z,9.67
2023-04-30T22:43:09.384Z,9.70
2023-04-30T22:45:36.294Z,9.90
2023-04-30T22:48:04.259Z,10.24
2023-04-30T22:50:32.576Z,10.05
2023-04-30T22:53:01.227Z,10.29
2023-04-30T22:55:28.695Z,10.49
2023-04-30T22:57:56.328Z,10.38
2023-04-30T23:00:33.544Z,10.27
2023-04-30T23:03:06.096Z,11.12
2023-04-30T23:05:32.995Z,10.80
2023-04-30T23:10:35.856Z,10.34
2023-04-30T23:13:02.390Z,10.48
2023-04-30T23:15:29.137Z,10.14
2023-04-30T23:17:56.988Z,10.46
2023-04-30T23:20:26.394Z,10.11
2023-04-30T23:22:53.159Z,10.67
2023-04-30T23:25:19.709Z,10.47
2023-04-30T23:27:47.434Z,10.51
2023-04-30T23:30:18.138Z,10.23
2023-04-30T23:32:46.856Z,10.28
2023-04-30T23:35:15.260Z,10.06
2023-04-30T23:37:42.834Z,10.15
2023-04-30T23:40:09.342Z,10.78
2023-04-30T23:42:38.616Z,9.75
2023-04-30T23:45:05.629Z,13.18
2023-04-30T23:47:34.044Z,11.49
2023-04-30T23:50:05.142Z,10.14
2023-04-30T23:52:31.956Z,10.35
2023-04-30T23:54:59.272Z,10.51
2023-04-30T23:57:26.636Z,10.34
2023-04-30T23:59:53.317Z,10.16
